General Aviation Weather

Text Reports

Enter one or more of the following location identifiers separated by a space:

Zip Code, Four-Character ICAO or Three-Character IATA airport codes.

METAR - Aviation Routine Weather Report
KDSV - Dansville, New York
Updated at 3:54 PM GMT on August 30, 2014 (11:54 AM EDT):
METAR KDSV 301554Z AUTO 16010KT 10SM CLR 26/17 A3009 RMK AO2 SLP193 T02610167
TAF - Terminal Area Forecast
KDSV - Dansville, New York
Updated at 3:54 PM GMT on August 30, 2014 (11:54 AM EDT):
No TAF is currently available for this location.
Decoded:
No decoded TAF is available.
PIREP - Pilot Weather Report
KDSV - Dansville, New York
Updated at 3:54 PM GMT on August 30, 2014 (11:54 AM EDT):
No PIREP is currently available for this location.
AIRMET - Airmens Meteorological Information
KDSV - Dansville, New York
Updated at 3:54 PM GMT on August 30, 2014 (11:54 AM EDT):
No AIRMET is currently available for this location.
SIGMET - Significant Meteorological Information
KDSV - Dansville, New York
Updated at 3:54 PM GMT on August 30, 2014 (11:54 AM EDT):
No SIGMET is currently available for this location.
NOTAM - Notice to Airmen
KDSV - Dansville, New York
Updated at 3:54 PM GMT on August 30, 2014 (11:54 AM EDT):
No NOTAM is currently available for this location.
Forecast Area
KDSV - Dansville, New York
Updated at 3:54 PM GMT on August 30, 2014 (11:54 AM EDT):
No NOTAM is currently available for this location.
Aviation Weather Maps